X  Sluiten METAR luchtvaart weer gegevens      EHEH Eindhoven Airport
Temperatuur
22°C Temperatuur
17°C Dauwpunt
73% Vochtigheid



Wind
10 KM/U
6 MPH
3 M/S
5 KTS



50°
NO
Huidig weer

Geheel bewolkt Geheel bewolkt
Luchtdruk 1008.92 (hPa) - 29.79 (inHg)
Zicht 6.2 (mijl) - 10 (km)
Vliegveld
Vliegveld code EHEH

Locatie : Eindhoven Airport
Afstand: 10 (km)

Metar:
EHEH 170025Z AUTO 05005KT 9999 OVC110 22/17 Q1009 BLU

Tijd: 17-08-2022 02:25 CEST